Portada
METAR-TAF:

METAR-TAF

Aeropuertos :

Aeropuerto de Logroño-Agoncillo

Logroño, España

latitud: 42-27N, longitud: 002-20W, altitud: 353 m

Observación

El informe se hizo hace 17 minutos, a las 01:00 UTC
Viento 12 kt del este, variando entre noreste y este-sureste
Temperatura 9°C
Humedad 87%
Presión 1024 hPa
Visibilidad 10 km o más
Cielo nuboso a una altura de 5000 ft
Cielo cubierto a una altura de 6900 ft

METAR: LELO 020100Z AUTO 08012KT 050V110 9999 BKN050 OVC069 09/07 Q1024

Hora: 02:17 (01:17 UTC)

Pronóstico

El informe se hizo hace 5 horas y 17 minutos, a las 20:00 UTC
Pronóstico válido del 01 a las 21 UTC al 02 a las 21 UTC
Viento 10 kt del este-sureste
Visibilidad 10 km o más
Escasas nubes a una altura de 4000 ft

TAF: LELO 012000Z 0121/0221 11010KT 9999 FEW040 TX16/0215Z TN07/0206Z

Observaciones y pronósticos meteorológicos de más de 4000 aeropuertos (mensajes METAR y TAF).

Los puntos amarillos y rojos representan las estaciones disponibles.

Ponga el ratón en el punto deseado para ver el nombre de la estación.

Haga clic para ver las observaciones y los pronósticos meteorológicos.

Para cambiar el mapa : haga clic en los botones verdes con una cruz de color negro para hacer un zoom, en el botón verde con un guión para alejar o en las flechas verdes para mapas adyacentes.


METAR-TAF: